sensor_id;sensor_type;location;lat;lon;timestamp;pressure;altitude;pressure_sealevel;temperature;humidity
21102;BME280;10709;49.006;12.100;2023-05-20T00:01:54;48781.31;;;-146.00;78.21
21102;BME280;10709;49.006;12.100;2023-05-20T00:04:21;48820.47;;;-146.00;78.39
21102;BME280;10709;49.006;12.100;2023-05-20T00:06:48;48796.97;;;-146.00;78.53
21102;BME280;10709;49.006;12.100;2023-05-20T00:09:17;48840.06;;;-146.00;78.74
21102;BME280;10709;49.006;12.100;2023-05-20T00:11:45;48800.88;;;-146.00;78.58
21102;BME280;10709;49.006;12.100;2023-05-20T00:14:11;48808.72;;;-146.00;78.40
21102;BME280;10709;49.006;12.100;2023-05-20T00:16:38;48796.97;;;-146.00;78.46
21102;BME280;10709;49.006;12.100;2023-05-20T00:19:04;48798.94;;;-146.00;78.40
21102;BME280;10709;49.006;12.100;2023-05-20T00:21:31;48804.81;;;-146.00;78.16
21102;BME280;10709;49.006;12.100;2023-05-20T00:23:59;48800.88;;;-146.00;78.27
21102;BME280;10709;49.006;12.100;2023-05-20T00:26:26;48791.09;;;-146.00;78.38
21102;BME280;10709;49.006;12.100;2023-05-20T00:28:52;48785.22;;;-146.00;78.37
21102;BME280;10709;49.006;12.100;2023-05-20T00:31:19;48800.88;;;-146.00;78.68
21102;BME280;10709;49.006;12.100;2023-05-20T00:33:47;48800.88;;;-146.00;78.95
21102;BME280;10709;49.006;12.100;2023-05-20T00:36:13;48828.31;;;-146.00;79.67
21102;BME280;10709;49.006;12.100;2023-05-20T00:38:40;48796.97;;;-146.00;80.45
21102;BME280;10709;49.006;12.100;2023-05-20T00:41:08;48824.41;;;-146.00;80.58
21102;BME280;10709;49.006;12.100;2023-05-20T00:43:35;48832.22;;;-146.00;80.62
21102;BME280;10709;49.006;12.100;2023-05-20T00:46:02;48832.22;;;-146.00;80.72
21102;BME280;10709;49.006;12.100;2023-05-20T00:48:38;48838.09;;;-146.00;80.30
21102;BME280;10709;49.006;12.100;2023-05-20T00:51:06;48832.22;;;-146.00;81.15
21102;BME280;10709;49.006;12.100;2023-05-20T00:53:34;48840.06;;;-146.00;81.67
21102;BME280;10709;49.006;12.100;2023-05-20T00:56:03;48816.56;;;-146.00;81.00
21102;BME280;10709;49.006;12.100;2023-05-20T00:58:30;48826.34;;;-146.00;81.30
21102;BME280;10709;49.006;12.100;2023-05-20T01:00:57;48836.16;;;-146.00;81.79
21102;BME280;10709;49.006;12.100;2023-05-20T01:03:23;48847.91;;;-146.00;80.98
21102;BME280;10709;49.006;12.100;2023-05-20T01:05:50;48840.06;;;-146.00;81.87
21102;BME280;10709;49.006;12.100;2023-05-20T01:08:17;48865.53;;;-146.00;81.85
21102;BME280;10709;49.006;12.100;2023-05-20T01:10:45;48834.19;;;-146.00;81.93
21102;BME280;10709;49.006;12.100;2023-05-20T01:13:17;48865.53;;;-146.00;82.36
21102;BME280;10709;49.006;12.100;2023-05-20T01:15:47;48844.00;;;-146.00;82.28
21102;BME280;10709;49.006;12.100;2023-05-20T01:18:15;48859.66;;;-146.00;82.92
21102;BME280;10709;49.006;12.100;2023-05-20T01:20:48;48877.28;;;-146.00;81.94
21102;BME280;10709;49.006;12.100;2023-05-20T01:23:15;48863.56;;;-146.00;82.87
21102;BME280;10709;49.006;12.100;2023-05-20T01:25:42;48885.13;;;-146.00;83.55
21102;BME280;10709;49.006;12.100;2023-05-20T01:28:09;48912.56;;;-146.00;84.08
21102;BME280;10709;49.006;12.100;2023-05-20T01:30:41;48889.03;;;-146.00;84.43
21102;BME280;10709;49.006;12.100;2023-05-20T01:33:12;48875.34;;;-146.00;83.79
21102;BME280;10709;49.006;12.100;2023-05-20T01:35:40;48871.41;;;-146.00;83.08
21102;BME280;10709;49.006;12.100;2023-05-20T01:38:09;48869.44;;;-146.00;83.63
21102;BME280;10709;49.006;12.100;2023-05-20T01:40:37;48879.25;;;-146.00;83.26
21102;BME280;10709;49.006;12.100;2023-05-20T01:43:05;48906.69;;;-146.00;83.60
21102;BME280;10709;49.006;12.100;2023-05-20T01:45:34;48896.88;;;-146.00;83.23
21102;BME280;10709;49.006;12.100;2023-05-20T01:48:01;48867.50;;;-146.00;82.87
21102;BME280;10709;49.006;12.100;2023-05-20T01:50:31;48898.84;;;-146.00;83.06
21102;BME280;10709;49.006;12.100;2023-05-20T01:52:57;48910.59;;;-146.00;82.66
21102;BME280;10709;49.006;12.100;2023-05-20T01:55:24;48863.56;;;-146.00;82.68
21102;BME280;10709;49.006;12.100;2023-05-20T01:57:51;48871.41;;;-146.00;82.73
21102;BME280;10709;49.006;12.100;2023-05-20T02:00:18;48891.00;;;-146.00;83.58
21102;BME280;10709;49.006;12.100;2023-05-20T02:02:44;48883.16;;;-146.00;83.04
21102;BME280;10709;49.006;12.100;2023-05-20T02:05:11;48847.91;;;-146.00;82.81
21102;BME280;10709;49.006;12.100;2023-05-20T02:07:38;48887.09;;;-146.00;82.41
21102;BME280;10709;49.006;12.100;2023-05-20T02:10:05;48883.16;;;-146.00;82.29
21102;BME280;10709;49.006;12.100;2023-05-20T02:12:34;48879.25;;;-146.00;82.39
21102;BME280;10709;49.006;12.100;2023-05-20T02:15:01;48871.41;;;-146.00;82.95
21102;BME280;10709;49.006;12.100;2023-05-20T02:17:29;48891.00;;;-146.00;83.47
21102;BME280;10709;49.006;12.100;2023-05-20T02:19:56;48900.78;;;-146.00;83.17
21102;BME280;10709;49.006;12.100;2023-05-20T02:22:23;48912.56;;;-146.00;83.86
21102;BME280;10709;49.006;12.100;2023-05-20T02:24:49;48906.69;;;-146.00;84.21
21102;BME280;10709;49.006;12.100;2023-05-20T02:27:16;48922.34;;;-146.00;83.99
21102;BME280;10709;49.006;12.100;2023-05-20T02:29:42;48859.66;;;-146.00;83.48
21102;BME280;10709;49.006;12.100;2023-05-20T02:32:09;48914.50;;;-146.00;84.32
21102;BME280;10709;49.006;12.100;2023-05-20T02:34:36;48857.69;;;-146.00;84.18
21102;BME280;10709;49.006;12.100;2023-05-20T02:37:04;48902.75;;;-146.00;84.48
21102;BME280;10709;49.006;12.100;2023-05-20T02:39:30;48930.19;;;-146.00;84.59
21102;BME280;10709;49.006;12.100;2023-05-20T02:41:57;48914.50;;;-146.00;84.79
21102;BME280;10709;49.006;12.100;2023-05-20T02:44:23;48906.69;;;-146.00;85.01
21102;BME280;10709;49.006;12.100;2023-05-20T02:46:50;48936.06;;;-146.00;85.53
21102;BME280;10709;49.006;12.100;2023-05-20T02:49:17;48930.19;;;-146.00;85.42
21102;BME280;10709;49.006;12.100;2023-05-20T02:51:44;48941.94;;;-146.00;84.94
21102;BME280;10709;49.006;12.100;2023-05-20T02:54:10;48900.78;;;-146.00;85.46
21102;BME280;10709;49.006;12.100;2023-05-20T02:56:37;48926.25;;;-146.00;85.54
21102;BME280;10709;49.006;12.100;2023-05-20T02:59:05;48914.50;;;-146.00;85.80
21102;BME280;10709;49.006;12.100;2023-05-20T03:01:32;48953.69;;;-146.00;85.03
21102;BME280;10709;49.006;12.100;2023-05-20T03:04:01;48922.34;;;-146.00;85.64
21102;BME280;10709;49.006;12.100;2023-05-20T03:06:30;48928.22;;;-146.00;86.46
21102;BME280;10709;49.006;12.100;2023-05-20T03:08:57;48941.94;;;-146.00;86.27
21102;BME280;10709;49.006;12.100;2023-05-20T03:11:24;48930.19;;;-146.00;87.03
21102;BME280;10709;49.006;12.100;2023-05-20T03:13:51;48949.78;;;-146.00;87.28
21102;BME280;10709;49.006;12.100;2023-05-20T03:16:18;48920.38;;;-146.00;87.12
21102;BME280;10709;49.006;12.100;2023-05-20T03:18:45;48904.72;;;-146.00;87.13
21102;BME280;10709;49.006;12.100;2023-05-20T03:21:12;48930.19;;;-146.00;87.14
21102;BME280;10709;49.006;12.100;2023-05-20T03:23:38;48953.69;;;-146.00;88.21
21102;BME280;10709;49.006;12.100;2023-05-20T03:26:05;48957.59;;;-146.00;88.58
21102;BME280;10709;49.006;12.100;2023-05-20T03:28:32;48953.69;;;-146.00;89.26
21102;BME280;10709;49.006;12.100;2023-05-20T03:30:58;48969.38;;;-146.00;89.88
21102;BME280;10709;49.006;12.100;2023-05-20T03:33:25;48943.91;;;-146.00;90.35
21102;BME280;10709;49.006;12.100;2023-05-20T03:35:52;48979.16;;;-146.00;90.26
21102;BME280;10709;49.006;12.100;2023-05-20T03:38:18;48957.59;;;-146.00;90.55
21102;BME280;10709;49.006;12.100;2023-05-20T03:40:45;48928.22;;;-146.00;89.76
21102;BME280;10709;49.006;12.100;2023-05-20T03:43:12;48963.50;;;-146.00;90.35
21102;BME280;10709;49.006;12.100;2023-05-20T03:45:41;48953.69;;;-146.00;90.59
21102;BME280;10709;49.006;12.100;2023-05-20T03:48:08;48953.69;;;-146.00;90.99
21102;BME280;10709;49.006;12.100;2023-05-20T03:50:34;48941.94;;;-146.00;90.65
21102;BME280;10709;49.006;12.100;2023-05-20T03:53:01;48953.69;;;-146.00;90.55
21102;BME280;10709;49.006;12.100;2023-05-20T03:55:28;48961.53;;;-146.00;90.91
21102;BME280;10709;49.006;12.100;2023-05-20T03:58:03;48971.31;;;-146.00;91.83
21102;BME280;10709;49.006;12.100;2023-05-20T04:00:29;48945.84;;;-146.00;92.51
21102;BME280;10709;49.006;12.100;2023-05-20T04:02:57;48930.19;;;-146.00;92.12
21102;BME280;10709;49.006;12.100;2023-05-20T04:05:24;48961.53;;;-146.00;92.56
21102;BME280;10709;49.006;12.100;2023-05-20T04:07:50;48953.69;;;-146.00;93.25
21102;BME280;10709;49.006;12.100;2023-05-20T04:10:18;48988.94;;;-146.00;92.33
21102;BME280;10709;49.006;12.100;2023-05-20T04:12:45;48965.44;;;-146.00;91.92
21102;BME280;10709;49.006;12.100;2023-05-20T04:15:13;48941.94;;;-146.00;92.33
21102;BME280;10709;49.006;12.100;2023-05-20T04:17:41;48992.88;;;-146.00;92.61
21102;BME280;10709;49.006;12.100;2023-05-20T04:20:10;48922.34;;;-146.00;92.54
21102;BME280;10709;49.006;12.100;2023-05-20T04:22:37;48945.84;;;-146.00;91.81
21102;BME280;10709;49.006;12.100;2023-05-20T04:25:05;48979.16;;;-146.00;90.80
21102;BME280;10709;49.006;12.100;2023-05-20T04:27:34;48965.44;;;-146.00;90.86
21102;BME280;10709;49.006;12.100;2023-05-20T04:30:01;48949.78;;;-146.00;90.68
21102;BME280;10709;49.006;12.100;2023-05-20T04:32:28;48977.19;;;-146.00;90.39
21102;BME280;10709;49.006;12.100;2023-05-20T04:34:55;48947.81;;;-146.00;89.66
21102;BME280;10709;49.006;12.100;2023-05-20T04:37:22;48992.88;;;-146.00;91.06
21102;BME280;10709;49.006;12.100;2023-05-20T04:39:49;48941.94;;;-146.00;90.73
21102;BME280;10709;49.006;12.100;2023-05-20T04:42:16;48957.59;;;-146.00;90.81
21102;BME280;10709;49.006;12.100;2023-05-20T04:44:44;48965.44;;;-146.00;90.34
21102;BME280;10709;49.006;12.100;2023-05-20T04:47:14;48996.78;;;-146.00;89.29
21102;BME280;10709;49.006;12.100;2023-05-20T04:49:44;48947.81;;;-146.00;89.12
21102;BME280;10709;49.006;12.100;2023-05-20T04:52:11;48969.38;;;-146.00;88.41
21102;BME280;10709;49.006;12.100;2023-05-20T04:54:37;48957.59;;;-146.00;89.08
21102;BME280;10709;49.006;12.100;2023-05-20T04:57:05;48961.53;;;-146.00;88.78
21102;BME280;10709;49.006;12.100;2023-05-20T04:59:33;48961.53;;;-146.00;87.96
21102;BME280;10709;49.006;12.100;2023-05-20T05:02:01;48949.78;;;-146.00;87.11
21102;BME280;10709;49.006;12.100;2023-05-20T05:04:27;48945.84;;;-146.00;86.76
21102;BME280;10709;49.006;12.100;2023-05-20T05:06:55;48961.53;;;-146.00;87.06
21102;BME280;10709;49.006;12.100;2023-05-20T05:09:21;48969.38;;;-146.00;87.18
21102;BME280;10709;49.006;12.100;2023-05-20T05:11:48;48945.84;;;-146.00;86.70
21102;BME280;10709;49.006;12.100;2023-05-20T05:14:15;48963.50;;;-146.00;86.83
21102;BME280;10709;49.006;12.100;2023-05-20T05:16:44;48930.19;;;-146.00;86.25
21102;BME280;10709;49.006;12.100;2023-05-20T05:19:11;48967.41;;;-146.00;86.79
21102;BME280;10709;49.006;12.100;2023-05-20T05:21:39;48949.78;;;-146.00;85.20
21102;BME280;10709;49.006;12.100;2023-05-20T05:24:06;48949.78;;;-146.00;85.11
21102;BME280;10709;49.006;12.100;2023-05-20T05:26:32;48965.44;;;-146.00;84.79
21102;BME280;10709;49.006;12.100;2023-05-20T05:28:59;48957.59;;;-146.00;84.32
21102;BME280;10709;49.006;12.100;2023-05-20T05:31:25;48951.72;;;-146.00;83.13
21102;BME280;10709;49.006;12.100;2023-05-20T05:33:52;48945.84;;;-146.00;81.79
21102;BME280;10709;49.006;12.100;2023-05-20T05:36:19;48914.50;;;-146.00;81.73
21102;BME280;10709;49.006;12.100;2023-05-20T05:38:46;48904.72;;;-146.00;81.47
21102;BME280;10709;49.006;12.100;2023-05-20T05:41:12;48867.50;;;-146.00;80.40
21102;BME280;10709;49.006;12.100;2023-05-20T05:43:39;48883.16;;;-146.00;80.10
21102;BME280;10709;49.006;12.100;2023-05-20T05:46:08;48847.91;;;-146.00;78.78
21102;BME280;10709;49.006;12.100;2023-05-20T05:48:35;48871.41;;;-146.00;78.08
21102;BME280;10709;49.006;12.100;2023-05-20T05:51:03;48879.25;;;-146.00;77.90
21102;BME280;10709;49.006;12.100;2023-05-20T05:53:29;48863.56;;;-146.00;77.59
21102;BME280;10709;49.006;12.100;2023-05-20T05:55:56;48865.53;;;-146.00;76.78
21102;BME280;10709;49.006;12.100;2023-05-20T05:58:22;48851.81;;;-146.00;76.22
21102;BME280;10709;49.006;12.100;2023-05-20T06:00:51;48830.28;;;-146.00;75.92
21102;BME280;10709;49.006;12.100;2023-05-20T06:03:18;48840.06;;;-146.00;75.15
21102;BME280;10709;49.006;12.100;2023-05-20T06:05:45;48812.63;;;-146.00;75.88
21102;BME280;10709;49.006;12.100;2023-05-20T06:08:12;48828.31;;;-146.00;76.37
21102;BME280;10709;49.006;12.100;2023-05-20T06:10:39;48832.22;;;-146.00;75.28
21102;BME280;10709;49.006;12.100;2023-05-20T06:13:06;48824.41;;;-146.00;75.15
21102;BME280;10709;49.006;12.100;2023-05-20T06:15:32;48818.53;;;-146.00;73.87
21102;BME280;10709;49.006;12.100;2023-05-20T06:17:59;48804.81;;;-146.00;72.92
21102;BME280;10709;49.006;12.100;2023-05-20T06:20:26;48824.41;;;-146.00;72.58
21102;BME280;10709;49.006;12.100;2023-05-20T06:22:52;48796.97;;;-146.00;72.58
21102;BME280;10709;49.006;12.100;2023-05-20T06:25:19;48800.88;;;-146.00;72.28
21102;BME280;10709;49.006;12.100;2023-05-20T06:27:48;48816.56;;;-146.00;71.97
21102;BME280;10709;49.006;12.100;2023-05-20T06:30:15;48816.56;;;-146.00;71.51
21102;BME280;10709;49.006;12.100;2023-05-20T06:32:43;48787.19;;;-146.00;71.67
21102;BME280;10709;49.006;12.100;2023-05-20T06:35:11;48810.69;;;-146.00;70.35
21102;BME280;10709;49.006;12.100;2023-05-20T06:37:38;48800.88;;;-146.00;70.63
21102;BME280;10709;49.006;12.100;2023-05-20T06:40:05;48832.22;;;-146.00;70.21
21102;BME280;10709;49.006;12.100;2023-05-20T06:42:32;48796.97;;;-146.00;69.29
21102;BME280;10709;49.006;12.100;2023-05-20T06:44:59;48789.13;;;-146.00;68.97
21102;BME280;10709;49.006;12.100;2023-05-20T06:47:26;48785.22;;;-146.00;68.23
21102;BME280;10709;49.006;12.100;2023-05-20T06:49:53;48826.34;;;-146.00;68.72
21102;BME280;10709;49.006;12.100;2023-05-20T06:52:19;48791.09;;;-146.00;68.06
21102;BME280;10709;49.006;12.100;2023-05-20T06:54:46;48798.94;;;-146.00;68.39
21102;BME280;10709;49.006;12.100;2023-05-20T06:57:12;48812.63;;;-146.00;68.48
21102;BME280;10709;49.006;12.100;2023-05-20T06:59:39;48800.88;;;-146.00;67.77
21102;BME280;10709;49.006;12.100;2023-05-20T07:02:07;48761.72;;;-146.00;65.33
21102;BME280;10709;49.006;12.100;2023-05-20T07:04:35;48781.31;;;-146.00;65.17
21102;BME280;10709;49.006;12.100;2023-05-20T07:07:02;48781.31;;;-146.00;64.16
21102;BME280;10709;49.006;12.100;2023-05-20T07:09:29;48804.81;;;-146.00;64.93
21102;BME280;10709;49.006;12.100;2023-05-20T07:11:55;48785.22;;;-146.00;63.15
21102;BME280;10709;49.006;12.100;2023-05-20T07:14:22;48781.31;;;-146.00;62.81
21102;BME280;10709;49.006;12.100;2023-05-20T07:16:49;48789.13;;;-146.00;61.37
21102;BME280;10709;49.006;12.100;2023-05-20T07:19:17;48777.38;;;-146.00;61.70
21102;BME280;10709;49.006;12.100;2023-05-20T07:21:47;48796.97;;;-146.00;60.69
21102;BME280;10709;49.006;12.100;2023-05-20T07:24:16;48789.13;;;-146.00;60.20
21102;BME280;10709;49.006;12.100;2023-05-20T07:26:42;48787.19;;;-146.00;60.04
21102;BME280;10709;49.006;12.100;2023-05-20T07:29:09;48761.72;;;-146.00;60.13
21102;BME280;10709;49.006;12.100;2023-05-20T07:31:36;48781.31;;;-146.00;59.38
21102;BME280;10709;49.006;12.100;2023-05-20T07:34:02;48779.34;;;-146.00;59.18
21102;BME280;10709;49.006;12.100;2023-05-20T07:36:29;48753.88;;;-146.00;59.95
21102;BME280;10709;49.006;12.100;2023-05-20T07:38:57;48755.84;;;-146.00;57.69
21102;BME280;10709;49.006;12.100;2023-05-20T07:41:30;48753.88;;;-146.00;56.64
21102;BME280;10709;49.006;12.100;2023-05-20T07:43:57;48775.41;;;-146.00;56.32
21102;BME280;10709;49.006;12.100;2023-05-20T07:46:23;48769.53;;;-146.00;56.13
21102;BME280;10709;49.006;12.100;2023-05-20T07:48:51;48775.41;;;-146.00;55.61
21102;BME280;10709;49.006;12.100;2023-05-20T07:51:18;48765.63;;;-146.00;56.34
21102;BME280;10709;49.006;12.100;2023-05-20T07:53:44;48789.13;;;-146.00;56.21
21102;BME280;10709;49.006;12.100;2023-05-20T07:56:11;48783.25;;;-146.00;55.01
21102;BME280;10709;49.006;12.100;2023-05-20T07:58:42;48798.94;;;-146.00;54.48
21102;BME280;10709;49.006;12.100;2023-05-20T08:01:09;48795.00;;;-146.00;54.36
21102;BME280;10709;49.006;12.100;2023-05-20T08:03:35;48806.75;;;-146.00;54.52
21102;BME280;10709;49.006;12.100;2023-05-20T08:06:02;48804.81;;;-146.00;54.41
21102;BME280;10709;49.006;12.100;2023-05-20T08:08:30;48796.97;;;-146.00;53.92
21102;BME280;10709;49.006;12.100;2023-05-20T08:10:56;48806.75;;;-146.00;55.05
21102;BME280;10709;49.006;12.100;2023-05-20T08:13:23;48789.13;;;-146.00;54.69
21102;BME280;10709;49.006;12.100;2023-05-20T08:15:54;48793.06;;;-146.00;55.16
21102;BME280;10709;49.006;12.100;2023-05-20T08:18:21;48808.72;;;-146.00;55.77
21102;BME280;10709;49.006;12.100;2023-05-20T08:20:49;48816.56;;;-146.00;56.03
21102;BME280;10709;49.006;12.100;2023-05-20T08:23:16;48808.72;;;-146.00;56.54
21102;BME280;10709;49.006;12.100;2023-05-20T08:25:43;48787.19;;;-146.00;55.86
21102;BME280;10709;49.006;12.100;2023-05-20T08:28:12;48773.47;;;-146.00;55.79
21102;BME280;10709;49.006;12.100;2023-05-20T08:30:38;48781.31;;;-146.00;55.91
21102;BME280;10709;49.006;12.100;2023-05-20T08:33:07;48769.53;;;-146.00;56.58
21102;BME280;10709;49.006;12.100;2023-05-20T08:35:34;48765.63;;;-146.00;56.34
21102;BME280;10709;49.006;12.100;2023-05-20T08:38:05;48816.56;;;-146.00;56.56
21102;BME280;10709;49.006;12.100;2023-05-20T08:40:35;48796.97;;;-146.00;56.28
21102;BME280;10709;49.006;12.100;2023-05-20T08:43:03;48789.13;;;-146.00;56.33
21102;BME280;10709;49.006;12.100;2023-05-20T08:45:31;48820.47;;;-146.00;56.66
21102;BME280;10709;49.006;12.100;2023-05-20T08:47:59;48800.88;;;-146.00;57.68
21102;BME280;10709;49.006;12.100;2023-05-20T08:50:26;48781.31;;;-146.00;57.02
21102;BME280;10709;49.006;12.100;2023-05-20T08:52:56;48796.97;;;-146.00;57.33
21102;BME280;10709;49.006;12.100;2023-05-20T08:55:33;48806.75;;;-146.00;56.32
21102;BME280;10709;49.006;12.100;2023-05-20T08:58:02;48820.47;;;-146.00;56.83
21102;BME280;10709;49.006;12.100;2023-05-20T09:00:29;48800.88;;;-146.00;57.02
21102;BME280;10709;49.006;12.100;2023-05-20T09:02:56;48812.63;;;-146.00;56.50
21102;BME280;10709;49.006;12.100;2023-05-20T09:05:26;48800.88;;;-146.00;57.14
21102;BME280;10709;49.006;12.100;2023-05-20T09:08:03;48773.47;;;-146.00;56.86
21102;BME280;10709;49.006;12.100;2023-05-20T09:10:31;48822.44;;;-146.00;56.28
21102;BME280;10709;49.006;12.100;2023-05-20T09:13:00;48828.31;;;-146.00;57.21
21102;BME280;10709;49.006;12.100;2023-05-20T09:15:33;48793.06;;;-146.00;57.30
21102;BME280;10709;49.006;12.100;2023-05-20T09:18:06;48804.81;;;-146.00;56.43
21102;BME280;10709;49.006;12.100;2023-05-20T09:20:36;48812.63;;;-146.00;57.59
21102;BME280;10709;49.006;12.100;2023-05-20T09:23:08;48806.75;;;-146.00;56.67
21102;BME280;10709;49.006;12.100;2023-05-20T09:25:36;48812.63;;;-146.00;56.93
21102;BME280;10709;49.006;12.100;2023-05-20T09:28:04;48812.63;;;-146.00;58.28
21102;BME280;10709;49.006;12.100;2023-05-20T09:30:32;48810.69;;;-146.00;57.07
21102;BME280;10709;49.006;12.100;2023-05-20T09:33:00;48820.47;;;-146.00;57.98
21102;BME280;10709;49.006;12.100;2023-05-20T09:35:27;48828.31;;;-146.00;57.39
21102;BME280;10709;49.006;12.100;2023-05-20T09:37:55;48816.56;;;-146.00;57.55
21102;BME280;10709;49.006;12.100;2023-05-20T09:40:27;48816.56;;;-146.00;57.73
21102;BME280;10709;49.006;12.100;2023-05-20T09:43:02;48830.28;;;-146.00;56.28
21102;BME280;10709;49.006;12.100;2023-05-20T09:45:29;48785.22;;;-146.00;55.92
21102;BME280;10709;49.006;12.100;2023-05-20T09:47:56;48832.22;;;-146.00;56.32
21102;BME280;10709;49.006;12.100;2023-05-20T09:50:24;48808.72;;;-146.00;56.37
21102;BME280;10709;49.006;12.100;2023-05-20T09:52:52;48800.88;;;-146.00;56.61
21102;BME280;10709;49.006;12.100;2023-05-20T09:55:22;48812.63;;;-146.00;55.03
21102;BME280;10709;49.006;12.100;2023-05-20T09:57:50;48845.94;;;-146.00;54.85
21102;BME280;10709;49.006;12.100;2023-05-20T10:00:18;48793.06;;;-146.00;54.83
21102;BME280;10709;49.006;12.100;2023-05-20T10:02:47;48824.41;;;-146.00;53.85
21102;BME280;10709;49.006;12.100;2023-05-20T10:05:21;48808.72;;;-146.00;54.56
21102;BME280;10709;49.006;12.100;2023-05-20T10:14:08;48844.00;;;-146.00;50.79
21102;BME280;10709;49.006;12.100;2023-05-20T10:19:31;48824.41;;;-146.00;53.13
21102;BME280;10709;49.006;12.100;2023-05-20T10:22:08;48814.59;;;-146.00;51.83
21102;BME280;10709;49.006;12.100;2023-05-20T10:24:40;48828.31;;;-146.00;51.93
21102;BME280;10709;49.006;12.100;2023-05-20T10:27:11;48808.72;;;-146.00;52.06
21102;BME280;10709;49.006;12.100;2023-05-20T10:29:52;48832.22;;;-146.00;50.67
21102;BME280;10709;49.006;12.100;2023-05-20T10:32:29;48804.81;;;-146.00;49.96
21102;BME280;10709;49.006;12.100;2023-05-20T10:35:03;48820.47;;;-146.00;49.93
21102;BME280;10709;49.006;12.100;2023-05-20T10:37:42;48816.56;;;-146.00;51.00
21102;BME280;10709;49.006;12.100;2023-05-20T10:40:10;48832.22;;;-146.00;50.81
21102;BME280;10709;49.006;12.100;2023-05-20T10:42:39;48804.81;;;-146.00;50.85
21102;BME280;10709;49.006;12.100;2023-05-20T10:45:06;48820.47;;;-146.00;48.66
21102;BME280;10709;49.006;12.100;2023-05-20T10:47:34;48824.41;;;-146.00;49.35
21102;BME280;10709;49.006;12.100;2023-05-20T10:50:01;48863.56;;;-146.00;49.00
21102;BME280;10709;49.006;12.100;2023-05-20T10:52:35;48808.72;;;-146.00;49.55
21102;BME280;10709;49.006;12.100;2023-05-20T10:55:02;48836.16;;;-146.00;49.51
21102;BME280;10709;49.006;12.100;2023-05-20T10:57:30;48840.06;;;-146.00;49.66
21102;BME280;10709;49.006;12.100;2023-05-20T11:00:00;48812.63;;;-146.00;50.47
21102;BME280;10709;49.006;12.100;2023-05-20T11:02:27;48836.16;;;-146.00;49.31
21102;BME280;10709;49.006;12.100;2023-05-20T11:04:57;48824.41;;;-146.00;49.72
21102;BME280;10709;49.006;12.100;2023-05-20T11:07:28;48832.22;;;-146.00;49.77
21102;BME280;10709;49.006;12.100;2023-05-20T11:09:58;48804.81;;;-146.00;50.25
21102;BME280;10709;49.006;12.100;2023-05-20T11:12:26;48847.91;;;-146.00;49.08
21102;BME280;10709;49.006;12.100;2023-05-20T11:14:53;48834.19;;;-146.00;49.42
21102;BME280;10709;49.006;12.100;2023-05-20T11:17:20;48863.56;;;-146.00;48.93
21102;BME280;10709;49.006;12.100;2023-05-20T11:19:47;48804.81;;;-146.00;49.00
21102;BME280;10709;49.006;12.100;2023-05-20T11:22:14;48800.88;;;-146.00;48.49
21102;BME280;10709;49.006;12.100;2023-05-20T11:24:41;48861.63;;;-146.00;46.85
21102;BME280;10709;49.006;12.100;2023-05-20T11:27:07;48851.81;;;-146.00;47.56
21102;BME280;10709;49.006;12.100;2023-05-20T11:29:34;48828.31;;;-146.00;46.98
21102;BME280;10709;49.006;12.100;2023-05-20T11:32:02;48824.41;;;-146.00;47.00
21102;BME280;10709;49.006;12.100;2023-05-20T11:34:36;48840.06;;;-146.00;46.01
21102;BME280;10709;49.006;12.100;2023-05-20T11:37:07;48849.88;;;-146.00;46.34
21102;BME280;10709;49.006;12.100;2023-05-20T11:39:35;48847.91;;;-146.00;47.31
21102;BME280;10709;49.006;12.100;2023-05-20T11:42:02;48851.81;;;-146.00;46.97
21102;BME280;10709;49.006;12.100;2023-05-20T11:44:29;48832.22;;;-146.00;47.40
21102;BME280;10709;49.006;12.100;2023-05-20T11:47:00;48836.16;;;-146.00;46.93
21102;BME280;10709;49.006;12.100;2023-05-20T11:49:27;48844.00;;;-146.00;46.64
21102;BME280;10709;49.006;12.100;2023-05-20T11:51:55;48816.56;;;-146.00;46.09
21102;BME280;10709;49.006;12.100;2023-05-20T11:54:23;48822.44;;;-146.00;46.04
21102;BME280;10709;49.006;12.100;2023-05-20T11:56:50;48820.47;;;-146.00;46.46
21102;BME280;10709;49.006;12.100;2023-05-20T11:59:17;48844.00;;;-146.00;46.20
21102;BME280;10709;49.006;12.100;2023-05-20T12:01:44;48851.81;;;-146.00;46.66
21102;BME280;10709;49.006;12.100;2023-05-20T12:04:11;48836.16;;;-146.00;45.81
21102;BME280;10709;49.006;12.100;2023-05-20T12:06:42;48851.81;;;-146.00;45.68
21102;BME280;10709;49.006;12.100;2023-05-20T12:09:10;48847.91;;;-146.00;46.77
21102;BME280;10709;49.006;12.100;2023-05-20T12:11:38;48879.25;;;-146.00;46.17
21102;BME280;10709;49.006;12.100;2023-05-20T12:14:07;48853.78;;;-146.00;46.76
21102;BME280;10709;49.006;12.100;2023-05-20T12:16:35;48828.31;;;-146.00;46.31
21102;BME280;10709;49.006;12.100;2023-05-20T12:19:02;48840.06;;;-146.00;46.84
21102;BME280;10709;49.006;12.100;2023-05-20T12:21:30;48838.09;;;-146.00;46.33
21102;BME280;10709;49.006;12.100;2023-05-20T12:23:59;48826.34;;;-146.00;45.65
21102;BME280;10709;49.006;12.100;2023-05-20T12:26:27;48828.31;;;-146.00;46.08
21102;BME280;10709;49.006;12.100;2023-05-20T12:28:54;48812.63;;;-146.00;45.99
21102;BME280;10709;49.006;12.100;2023-05-20T12:31:21;48828.31;;;-146.00;46.09
21102;BME280;10709;49.006;12.100;2023-05-20T12:33:48;48793.06;;;-146.00;45.06
21102;BME280;10709;49.006;12.100;2023-05-20T12:36:14;48842.03;;;-146.00;44.24
21102;BME280;10709;49.006;12.100;2023-05-20T12:38:41;48816.56;;;-146.00;44.68
21102;BME280;10709;49.006;12.100;2023-05-20T12:41:08;48838.09;;;-146.00;45.31
21102;BME280;10709;49.006;12.100;2023-05-20T12:43:35;48847.91;;;-146.00;45.15